Terminal Aerodrome Forecast
Issued by NWS Blacksburg, VA

Current Version | Previous Version | Graphics & Text | Print | Product List | Glossary On
Versions: 1 2 3 4 5 6 7 8 9 10 11 12 13 14 15 16 17 18 19 20 21 22 23 24 25 26 27 28 29 30 31 32 33 34 35 36
000
FTUS41 KRNK 151406 AAA
TAFBLF
TAF AMD
KBLF 151406Z 1514/1612 09007KT 0SM FG VV002
     FM151600 VRB03KT 3SM BR OVC004
     FM151800 20005KT P6SM SCT250
     FM152200 19006KT P6SM SCT100 BKN250
     FM160400 16006KT P6SM BKN090 OVC150
     FM160900 18007KT 4SM -SHRA BKN025 OVC060=

USA.gov is the U.S. government's official web portal to all federal, state and local government web resources and services.